MSC Newyork — HOFP — position and weather

sailwx.info

Track history (hours):
 
Tides and Currents Weather Stations Pressure Air Temp Water Temp Dewpoint Dewpoint Depression Visibility Wind Speed Wind Dir Waves Ship Positions

MSC Newyork

Last reported at 2017-Sep-23 23:14 UTC. Time now 2017-Sep-24 08:54 UTC.
Position N 30°38' E 122°03'.

Length 399 m; draft 10.6 m.

Type: Ship. MMSI: 352952000.

Date/timePositionNaut miles runAvg speedWind from/ knotsBaromVisibWave heightAir tempDewpointWater temp
2017-Sep-23 23:14N 30°38' E 122°03'0 1.0
2017-Sep-23 22:45N 30°38' E 122°03'0 1.1
2017-Sep-23 22:30N 30°37' E 122°02'11 6.3
2017-Sep-23 20:45N 30°33' E 122°15'41 1.0
2017-Sep-22 01:19N 30°01' E 122°45'514.4
2017-Sep-22 01:00N 29°57' E 122°42'815.1
2017-Sep-22 00:30N 29°50' E 122°39'814.1
2017-Sep-21 23:57N 29°43' E 122°35'4 9.2
2017-Sep-21 23:30N 29°40' E 122°32'611.7
2017-Sep-21 23:00N 29°42' E 122°25'713.4
2017-Sep-21 22:30N 29°45' E 122°18'510.5
2017-Sep-21 22:00N 29°49' E 122°14'713.2
2017-Sep-21 21:30N 29°54' E 122°10'612.3
2017-Sep-21 21:00N 29°54' E 122°03'0 0.5
2017-Sep-21 20:30N 29°53' E 122°03'0 0.0
2017-Sep-21 20:00N 29°53' E 122°03'0 0.0
2017-Sep-21 19:25N 29°53' E 122°03'0 0.0
2017-Sep-21 18:36N 29°53' E 122°03'0 0.0
2017-Sep-21 18:06N 29°53' E 122°03'0 0.0
2017-Sep-21 17:54N 29°53' E 122°03'0 0.0
2017-Sep-21 17:30N 29°53' E 122°03'0 0.0
2017-Sep-21 17:00N 29°53' E 122°03'0 0.0
2017-Sep-21 16:30N 29°53' E 122°03'0 0.0
2017-Sep-21 16:00N 29°53' E 122°03'0 0.0
2017-Sep-21 14:48N 29°53' E 122°03'0 0.0
2017-Sep-21 14:24N 29°53' E 122°03'0 0.0
2017-Sep-21 14:00N 29°53' E 122°03'0 0.0
2017-Sep-21 13:18N 29°53' E 122°03'0 0.0
2017-Sep-21 13:00N 29°53' E 122°03'0 0.0
2017-Sep-21 12:30N 29°53' E 122°03'0 0.0
2017-Sep-21 11:54N 29°53' E 122°03'0 0.0
2017-Sep-21 11:30N 29°53' E 122°03'0 0.0
2017-Sep-21 11:00N 29°53' E 122°03'0 0.0
2017-Sep-21 10:18N 29°53' E 122°03'0 0.0
2017-Sep-21 10:00N 29°53' E 122°03'0 0.0
2017-Sep-21 09:24N 29°53' E 122°03'0 0.0
2017-Sep-21 09:00N 29°53' E 122°03'0 0.0
2017-Sep-21 08:30N 29°53' E 122°03'0 0.0
2017-Sep-21 07:57N 29°53' E 122°03'0 0.0
2017-Sep-21 07:30N 29°53' E 122°03'0 0.0
2017-Sep-21 06:42N 29°53' E 122°03'0 0.0
2017-Sep-21 06:24N 29°53' E 122°03'0 0.0
2017-Sep-21 06:00N 29°53' E 122°03'0 0.0
2017-Sep-21 05:30N 29°53' E 122°03'0 0.0
2017-Sep-21 05:00N 29°53' E 122°03'0 0.0
2017-Sep-21 04:30N 29°53' E 122°03'0 0.0
2017-Sep-21 04:00N 29°53' E 122°03'0 0.0
2017-Sep-21 03:30N 29°53' E 122°03'0 0.0
2017-Sep-21 03:00N 29°53' E 122°03'0 0.0
2017-Sep-21 02:30N 29°53' E 122°03'0 0.0
2017-Sep-21 02:00N 29°53' E 122°03'0 0.0
2017-Sep-21 01:30N 29°53' E 122°03'0 0.0
2017-Sep-21 00:54N 29°53' E 122°03'0 0.0
2017-Sep-21 00:27N 29°53' E 122°03'0 0.0
2017-Sep-21 00:00N 29°53' E 122°03'0 0.0
2017-Sep-20 23:30N 29°53' E 122°03'0 0.0
2017-Sep-20 22:57N 29°53' E 122°03'0 0.0
2017-Sep-20 22:30N 29°53' E 122°03'0 0.0
2017-Sep-20 21:54N 29°53' E 122°03'0 0.0
2017-Sep-20 18:24N 29°53' E 122°03'0 0.0
2017-Sep-20 17:13N 29°53' E 122°03'0 0.0
2017-Sep-20 15:31N 29°53' E 122°03'0 0.0
2017-Sep-20 15:18N 29°53' E 122°03'0 0.0
2017-Sep-20 15:00N 29°53' E 122°03'0 0.0
2017-Sep-20 14:00N 29°53' E 122°03'0 0.0
2017-Sep-20 13:30N 29°53' E 122°03'0 0.0
2017-Sep-20 13:00N 29°53' E 122°03'0 0.0
2017-Sep-20 12:30N 29°53' E 122°03'0 0.0
2017-Sep-20 12:00N 29°53' E 122°03'0 0.0
2017-Sep-20 11:30N 29°53' E 122°03'0 0.0
2017-Sep-20 11:00N 29°53' E 122°03'0 0.0
2017-Sep-20 10:30N 29°53' E 122°03'0 0.0
2017-Sep-20 09:54N 29°53' E 122°03'0 0.0
2017-Sep-20 09:30N 29°53' E 122°03'0 0.1
2017-Sep-20 09:01N 29°53' E 122°03'1 2.3
2017-Sep-20 08:31N 29°54' E 122°04'3 6.3
2017-Sep-20 08:00N 29°55' E 122°07'5 9.1
2017-Sep-20 07:31N 29°53' E 122°11'510.6
2017-Sep-20 07:01N 29°48' E 122°15'5 9.1
2017-Sep-20 06:30N 29°45' E 122°19'4 7.4
2017-Sep-20 06:01N 29°44' E 122°23'510.2
2017-Sep-20 05:31N 29°43' E 122°28'611.8
2017-Sep-20 05:00N 29°42' E 122°35'5 9.7
2017-Sep-20 04:30N 29°39' E 122°40'4 7.7
2017-Sep-20 03:59N 29°35' E 122°40'4 8.1
2017-Sep-20 03:30N 29°31' E 122°39'18 4.0
2017-Sep-19 23:01N 29°13' E 122°38'5 9.3
2017-Sep-19 22:30N 29°08' E 122°38'37 8.7
2017-Sep-19 18:12N 28°31' E 122°34'2 8.6
2017-Sep-19 18:00N 28°30' E 122°32'4 8.8
2017-Sep-19 17:29N 28°27' E 122°28'8 9.0
2017-Sep-19 16:39N 28°25' E 122°20'2 8.9
2017-Sep-19 16:25N 28°23' E 122°18'4 9.0
2017-Sep-19 16:00N 28°20' E 122°16'6 8.9
2017-Sep-19 15:21N 28°15' E 122°13'6 8.9
2017-Sep-19 14:41N 28°10' E 122°09'21511.4
2017-Sep-18 19:52N 24°60' E 120°17'612.9
2017-Sep-18 19:24N 24°54' E 120°15'613.0
2017-Sep-18 18:56N 24°48' E 120°15'613.3
2017-Sep-18 18:29N 24°42' E 120°13'612.9
2017-Sep-18 18:00N 24°36' E 120°11'613.0
2017-Sep-18 17:30N 24°31' E 120°07'611.9
2017-Sep-18 17:00N 24°25' E 120°06'612.2
2017-Sep-18 16:30N 24°19' E 120°05'611.8
2017-Sep-18 15:59N 24°13' E 120°03'611.5
2017-Sep-18 15:26N 24°07' E 120°01'511.4
2017-Sep-18 14:59N 24°02' E 119°59'611.9
2017-Sep-18 14:30N 23°57' E 119°56'612.7
2017-Sep-18 14:00N 23°51' E 119°54'713.7
2017-Sep-18 13:30N 23°45' E 119°53'714.1
2017-Sep-18 13:01N 23°38' E 119°53'714.7
2017-Sep-18 12:30N 23°30' E 119°53'714.8
2017-Sep-18 12:00N 23°23' E 119°53'814.9
2017-Sep-18 11:30N 23°15' E 119°53'714.7
2017-Sep-18 11:00N 23°08' E 119°53'714.4
2017-Sep-18 10:30N 23°01' E 119°53'714.4
2017-Sep-18 10:00N 22°54' E 119°53'713.8
2017-Sep-18 09:30N 22°47' E 119°53'714.2
2017-Sep-18 09:00N 22°40' E 119°51'816.6
2017-Sep-18 08:30N 22°32' E 119°50'816.5
2017-Sep-18 08:00N 22°24' E 119°47'816.4
2017-Sep-18 07:30N 22°17' E 119°43'816.5
2017-Sep-18 07:00N 22°09' E 119°39'3317.0
2017-Sep-18 05:05N 21°41' E 119°21'  
2017-Sep-14 12:27N 01°15' E 104°11'921.0
2017-Sep-14 12:00N 01°14' E 104°02'918.6
2017-Sep-14 11:30N 01°12' E 103°53'918.7
2017-Sep-14 11:00N 01°07' E 103°45'815.9
2017-Sep-14 10:31N 01°03' E 103°38'917.8
2017-Sep-14 09:59N 01°08' E 103°30'918.4
2017-Sep-14 09:29N 01°14' E 103°22'  
Track history (hours):
 
Tides and Currents Weather Stations Pressure Air Temp Water Temp Dewpoint Dewpoint Depression Visibility Wind Speed Wind Dir Waves Ship Positions

MSC Newyork

Last reported at 2017-Sep-23 23:14 UTC. Time now 2017-Sep-24 08:54 UTC.
Position N 30°38' E 122°03'.

Length 399 m; draft 10.6 m.

Type: Ship. MMSI: 352952000.

Date/timePositionNaut miles runAvg speedWind from/ knotsBaromVisibWave heightAir tempDewpointWater temp
2017-Sep-23 23:14N 30°38' E 122°03'0 1.0
2017-Sep-23 22:45N 30°38' E 122°03'0 1.1
2017-Sep-23 22:30N 30°37' E 122°02'11 6.3
2017-Sep-23 20:45N 30°33' E 122°15'41 1.0
2017-Sep-22 01:19N 30°01' E 122°45'514.4
2017-Sep-22 01:00N 29°57' E 122°42'815.1
2017-Sep-22 00:30N 29°50' E 122°39'814.1
2017-Sep-21 23:57N 29°43' E 122°35'4 9.2
2017-Sep-21 23:30N 29°40' E 122°32'611.7
2017-Sep-21 23:00N 29°42' E 122°25'713.4
2017-Sep-21 22:30N 29°45' E 122°18'510.5
2017-Sep-21 22:00N 29°49' E 122°14'713.2
2017-Sep-21 21:30N 29°54' E 122°10'612.3
2017-Sep-21 21:00N 29°54' E 122°03'0 0.5
2017-Sep-21 20:30N 29°53' E 122°03'0 0.0
2017-Sep-21 20:00N 29°53' E 122°03'0 0.0
2017-Sep-21 19:25N 29°53' E 122°03'0 0.0
2017-Sep-21 18:36N 29°53' E 122°03'0 0.0
2017-Sep-21 18:06N 29°53' E 122°03'0 0.0
2017-Sep-21 17:54N 29°53' E 122°03'0 0.0
2017-Sep-21 17:30N 29°53' E 122°03'0 0.0
2017-Sep-21 17:00N 29°53' E 122°03'0 0.0
2017-Sep-21 16:30N 29°53' E 122°03'0 0.0
2017-Sep-21 16:00N 29°53' E 122°03'0 0.0
2017-Sep-21 14:48N 29°53' E 122°03'0 0.0
2017-Sep-21 14:24N 29°53' E 122°03'0 0.0
2017-Sep-21 14:00N 29°53' E 122°03'0 0.0
2017-Sep-21 13:18N 29°53' E 122°03'0 0.0
2017-Sep-21 13:00N 29°53' E 122°03'0 0.0
2017-Sep-21 12:30N 29°53' E 122°03'0 0.0
2017-Sep-21 11:54N 29°53' E 122°03'0 0.0
2017-Sep-21 11:30N 29°53' E 122°03'0 0.0
2017-Sep-21 11:00N 29°53' E 122°03'0 0.0
2017-Sep-21 10:18N 29°53' E 122°03'0 0.0
2017-Sep-21 10:00N 29°53' E 122°03'0 0.0
2017-Sep-21 09:24N 29°53' E 122°03'0 0.0
2017-Sep-21 09:00N 29°53' E 122°03'0 0.0
2017-Sep-21 08:30N 29°53' E 122°03'0 0.0
2017-Sep-21 07:57N 29°53' E 122°03'0 0.0
2017-Sep-21 07:30N 29°53' E 122°03'0 0.0
2017-Sep-21 06:42N 29°53' E 122°03'0 0.0
2017-Sep-21 06:24N 29°53' E 122°03'0 0.0
2017-Sep-21 06:00N 29°53' E 122°03'0 0.0
2017-Sep-21 05:30N 29°53' E 122°03'0 0.0
2017-Sep-21 05:00N 29°53' E 122°03'0 0.0
2017-Sep-21 04:30N 29°53' E 122°03'0 0.0
2017-Sep-21 04:00N 29°53' E 122°03'0 0.0
2017-Sep-21 03:30N 29°53' E 122°03'0 0.0
2017-Sep-21 03:00N 29°53' E 122°03'0 0.0
2017-Sep-21 02:30N 29°53' E 122°03'0 0.0
2017-Sep-21 02:00N 29°53' E 122°03'0 0.0
2017-Sep-21 01:30N 29°53' E 122°03'0 0.0
2017-Sep-21 00:54N 29°53' E 122°03'0 0.0
2017-Sep-21 00:27N 29°53' E 122°03'0 0.0
2017-Sep-21 00:00N 29°53' E 122°03'0 0.0
2017-Sep-20 23:30N 29°53' E 122°03'0 0.0
2017-Sep-20 22:57N 29°53' E 122°03'0 0.0
2017-Sep-20 22:30N 29°53' E 122°03'0 0.0
2017-Sep-20 21:54N 29°53' E 122°03'0 0.0
2017-Sep-20 18:24N 29°53' E 122°03'0 0.0
2017-Sep-20 17:13N 29°53' E 122°03'0 0.0
2017-Sep-20 15:31N 29°53' E 122°03'0 0.0
2017-Sep-20 15:18N 29°53' E 122°03'0 0.0
2017-Sep-20 15:00N 29°53' E 122°03'0 0.0
2017-Sep-20 14:00N 29°53' E 122°03'0 0.0
2017-Sep-20 13:30N 29°53' E 122°03'0 0.0
2017-Sep-20 13:00N 29°53' E 122°03'0 0.0
2017-Sep-20 12:30N 29°53' E 122°03'0 0.0
2017-Sep-20 12:00N 29°53' E 122°03'0 0.0
2017-Sep-20 11:30N 29°53' E 122°03'0 0.0
2017-Sep-20 11:00N 29°53' E 122°03'0 0.0
2017-Sep-20 10:30N 29°53' E 122°03'0 0.0
2017-Sep-20 09:54N 29°53' E 122°03'0 0.0
2017-Sep-20 09:30N 29°53' E 122°03'0 0.1
2017-Sep-20 09:01N 29°53' E 122°03'1 2.3
2017-Sep-20 08:31N 29°54' E 122°04'3 6.3
2017-Sep-20 08:00N 29°55' E 122°07'5 9.1
2017-Sep-20 07:31N 29°53' E 122°11'510.6
2017-Sep-20 07:01N 29°48' E 122°15'5 9.1
2017-Sep-20 06:30N 29°45' E 122°19'4 7.4
2017-Sep-20 06:01N 29°44' E 122°23'510.2
2017-Sep-20 05:31N 29°43' E 122°28'611.8
2017-Sep-20 05:00N 29°42' E 122°35'5 9.7
2017-Sep-20 04:30N 29°39' E 122°40'4 7.7
2017-Sep-20 03:59N 29°35' E 122°40'4 8.1
2017-Sep-20 03:30N 29°31' E 122°39'18 4.0
2017-Sep-19 23:01N 29°13' E 122°38'5 9.3
2017-Sep-19 22:30N 29°08' E 122°38'37 8.7
2017-Sep-19 18:12N 28°31' E 122°34'2 8.6
2017-Sep-19 18:00N 28°30' E 122°32'4 8.8
2017-Sep-19 17:29N 28°27' E 122°28'8 9.0
2017-Sep-19 16:39N 28°25' E 122°20'2 8.9
2017-Sep-19 16:25N 28°23' E 122°18'4 9.0
2017-Sep-19 16:00N 28°20' E 122°16'6 8.9
2017-Sep-19 15:21N 28°15' E 122°13'6 8.9
2017-Sep-19 14:41N 28°10' E 122°09'21511.4
2017-Sep-18 19:52N 24°60' E 120°17'612.9
2017-Sep-18 19:24N 24°54' E 120°15'613.0
2017-Sep-18 18:56N 24°48' E 120°15'613.3
2017-Sep-18 18:29N 24°42' E 120°13'612.9
2017-Sep-18 18:00N 24°36' E 120°11'613.0
2017-Sep-18 17:30N 24°31' E 120°07'611.9
2017-Sep-18 17:00N 24°25' E 120°06'612.2
2017-Sep-18 16:30N 24°19' E 120°05'611.8
2017-Sep-18 15:59N 24°13' E 120°03'611.5
2017-Sep-18 15:26N 24°07' E 120°01'511.4
2017-Sep-18 14:59N 24°02' E 119°59'611.9
2017-Sep-18 14:30N 23°57' E 119°56'612.7
2017-Sep-18 14:00N 23°51' E 119°54'713.7
2017-Sep-18 13:30N 23°45' E 119°53'714.1
2017-Sep-18 13:01N 23°38' E 119°53'714.7
2017-Sep-18 12:30N 23°30' E 119°53'714.8
2017-Sep-18 12:00N 23°23' E 119°53'814.9
2017-Sep-18 11:30N 23°15' E 119°53'714.7
2017-Sep-18 11:00N 23°08' E 119°53'714.4
2017-Sep-18 10:30N 23°01' E 119°53'714.4
2017-Sep-18 10:00N 22°54' E 119°53'713.8
2017-Sep-18 09:30N 22°47' E 119°53'714.2
2017-Sep-18 09:00N 22°40' E 119°51'816.6
2017-Sep-18 08:30N 22°32' E 119°50'816.5
2017-Sep-18 08:00N 22°24' E 119°47'816.4
2017-Sep-18 07:30N 22°17' E 119°43'816.5
2017-Sep-18 07:00N 22°09' E 119°39'3317.0
2017-Sep-18 05:05N 21°41' E 119°21'  
2017-Sep-14 12:27N 01°15' E 104°11'921.0
2017-Sep-14 12:00N 01°14' E 104°02'918.6
2017-Sep-14 11:30N 01°12' E 103°53'918.7
2017-Sep-14 11:00N 01°07' E 103°45'815.9
2017-Sep-14 10:31N 01°03' E 103°38'917.8
2017-Sep-14 09:59N 01°08' E 103°30'918.4
2017-Sep-14 09:29N 01°14' E 103°22'  

Dump ship's entire track history